sensor_id;sensor_type;location;lat;lon;timestamp;P1;durP1;ratioP1;P2;durP2;ratioP2
66118;SDS011;52912;48.564;9.302;2022-10-16T00:02:18;5.93;;;1.10;;
66118;SDS011;52912;48.564;9.302;2022-10-16T00:04:44;3.70;;;1.10;;
66118;SDS011;52912;48.564;9.302;2022-10-16T00:07:09;2.22;;;1.20;;
66118;SDS011;52912;48.564;9.302;2022-10-16T00:09:35;5.45;;;1.33;;
66118;SDS011;52912;48.564;9.302;2022-10-16T00:12:00;5.47;;;1.50;;
66118;SDS011;52912;48.564;9.302;2022-10-16T00:14:27;7.15;;;1.45;;
66118;SDS011;52912;48.564;9.302;2022-10-16T00:16:52;8.38;;;1.20;;
66118;SDS011;52912;48.564;9.302;2022-10-16T00:19:18;7.45;;;1.70;;
66118;SDS011;52912;48.564;9.302;2022-10-16T00:21:43;4.35;;;1.35;;
66118;SDS011;52912;48.564;9.302;2022-10-16T00:24:09;13.65;;;2.22;;
66118;SDS011;52912;48.564;9.302;2022-10-16T00:26:36;5.13;;;1.40;;
66118;SDS011;52912;48.564;9.302;2022-10-16T00:29:03;9.90;;;1.38;;
66118;SDS011;52912;48.564;9.302;2022-10-16T00:31:30;2.72;;;1.30;;
66118;SDS011;52912;48.564;9.302;2022-10-16T00:33:56;3.00;;;1.20;;
66118;SDS011;52912;48.564;9.302;2022-10-16T00:36:23;8.05;;;1.35;;
66118;SDS011;52912;48.564;9.302;2022-10-16T00:38:50;2.10;;;1.27;;
66118;SDS011;52912;48.564;9.302;2022-10-16T00:41:16;1.67;;;1.10;;
66118;SDS011;52912;48.564;9.302;2022-10-16T00:43:43;3.25;;;1.30;;
66118;SDS011;52912;48.564;9.302;2022-10-16T00:46:13;8.00;;;1.60;;
66118;SDS011;52912;48.564;9.302;2022-10-16T00:48:45;8.07;;;1.50;;
66118;SDS011;52912;48.564;9.302;2022-10-16T00:51:14;3.80;;;1.20;;
66118;SDS011;52912;48.564;9.302;2022-10-16T00:53:40;3.28;;;1.20;;
66118;SDS011;52912;48.564;9.302;2022-10-16T00:56:06;2.13;;;1.10;;
66118;SDS011;52912;48.564;9.302;2022-10-16T00:58:31;5.72;;;1.40;;
66118;SDS011;52912;48.564;9.302;2022-10-16T01:00:57;1.35;;;1.20;;
66118;SDS011;52912;48.564;9.302;2022-10-16T01:03:23;2.17;;;1.40;;
66118;SDS011;52912;48.564;9.302;2022-10-16T01:08:45;6.40;;;1.40;;
66118;SDS011;52912;48.564;9.302;2022-10-16T01:11:21;6.95;;;1.40;;
66118;SDS011;52912;48.564;9.302;2022-10-16T01:13:53;8.10;;;1.67;;
66118;SDS011;52912;48.564;9.302;2022-10-16T01:16:23;3.28;;;1.25;;
66118;SDS011;52912;48.564;9.302;2022-10-16T01:18:56;1.58;;;1.20;;
66118;SDS011;52912;48.564;9.302;2022-10-16T01:21:31;2.45;;;1.13;;
66118;SDS011;52912;48.564;9.302;2022-10-16T01:24:00;3.03;;;1.40;;
66118;SDS011;52912;48.564;9.302;2022-10-16T01:26:35;2.33;;;1.40;;
66118;SDS011;52912;48.564;9.302;2022-10-16T01:29:12;3.85;;;1.30;;
66118;SDS011;52912;48.564;9.302;2022-10-16T01:31:41;8.73;;;2.42;;
66118;SDS011;52912;48.564;9.302;2022-10-16T01:34:15;3.30;;;1.30;;
66118;SDS011;52912;48.564;9.302;2022-10-16T01:36:45;5.85;;;1.27;;
66118;SDS011;52912;48.564;9.302;2022-10-16T01:39:15;4.05;;;1.15;;
66118;SDS011;52912;48.564;9.302;2022-10-16T01:41:49;3.30;;;1.40;;
66118;SDS011;52912;48.564;9.302;2022-10-16T01:44:21;4.82;;;1.30;;
66118;SDS011;52912;48.564;9.302;2022-10-16T01:46:52;2.50;;;1.42;;
66118;SDS011;52912;48.564;9.302;2022-10-16T01:49:19;4.72;;;1.15;;
66118;SDS011;52912;48.564;9.302;2022-10-16T01:51:47;3.92;;;1.23;;
66118;SDS011;52912;48.564;9.302;2022-10-16T01:54:17;2.65;;;1.30;;
66118;SDS011;52912;48.564;9.302;2022-10-16T01:56:45;3.92;;;1.30;;
66118;SDS011;52912;48.564;9.302;2022-10-16T01:59:13;3.80;;;1.50;;
66118;SDS011;52912;48.564;9.302;2022-10-16T02:01:45;3.67;;;1.40;;
66118;SDS011;52912;48.564;9.302;2022-10-16T02:04:14;3.72;;;1.30;;
66118;SDS011;52912;48.564;9.302;2022-10-16T02:06:43;3.00;;;1.40;;
66118;SDS011;52912;48.564;9.302;2022-10-16T02:09:08;5.70;;;1.63;;
66118;SDS011;52912;48.564;9.302;2022-10-16T02:11:34;3.00;;;1.90;;
66118;SDS011;52912;48.564;9.302;2022-10-16T02:14:00;5.18;;;2.10;;
66118;SDS011;52912;48.564;9.302;2022-10-16T02:16:32;5.07;;;1.80;;
66118;SDS011;52912;48.564;9.302;2022-10-16T02:19:00;8.07;;;1.83;;
66118;SDS011;52912;48.564;9.302;2022-10-16T02:21:27;1.98;;;1.45;;
66118;SDS011;52912;48.564;9.302;2022-10-16T02:23:56;4.05;;;1.90;;
66118;SDS011;52912;48.564;9.302;2022-10-16T02:26:28;3.03;;;1.88;;
66118;SDS011;52912;48.564;9.302;2022-10-16T02:28:59;3.33;;;1.77;;
66118;SDS011;52912;48.564;9.302;2022-10-16T02:31:27;3.67;;;1.95;;
66118;SDS011;52912;48.564;9.302;2022-10-16T02:33:54;4.68;;;1.70;;
66118;SDS011;52912;48.564;9.302;2022-10-16T02:36:24;2.70;;;1.70;;
66118;SDS011;52912;48.564;9.302;2022-10-16T02:38:51;3.33;;;1.48;;
66118;SDS011;52912;48.564;9.302;2022-10-16T02:41:17;2.95;;;1.60;;
66118;SDS011;52912;48.564;9.302;2022-10-16T02:43:43;3.45;;;1.42;;
66118;SDS011;52912;48.564;9.302;2022-10-16T02:46:09;5.10;;;1.52;;
66118;SDS011;52912;48.564;9.302;2022-10-16T02:48:34;2.60;;;1.52;;
66118;SDS011;52912;48.564;9.302;2022-10-16T02:50:59;3.20;;;1.65;;
66118;SDS011;52912;48.564;9.302;2022-10-16T02:53:26;6.05;;;1.70;;
66118;SDS011;52912;48.564;9.302;2022-10-16T02:55:52;4.63;;;1.60;;
66118;SDS011;52912;48.564;9.302;2022-10-16T02:58:17;3.72;;;1.67;;
66118;SDS011;52912;48.564;9.302;2022-10-16T03:00:43;1.90;;;1.65;;
66118;SDS011;52912;48.564;9.302;2022-10-16T03:03:08;3.30;;;1.58;;
66118;SDS011;52912;48.564;9.302;2022-10-16T03:05:33;4.10;;;1.80;;
66118;SDS011;52912;48.564;9.302;2022-10-16T03:07:59;5.05;;;1.65;;
66118;SDS011;52912;48.564;9.302;2022-10-16T03:10:26;6.57;;;1.75;;
66118;SDS011;52912;48.564;9.302;2022-10-16T03:12:51;7.65;;;1.77;;
66118;SDS011;52912;48.564;9.302;2022-10-16T03:15:17;6.78;;;1.52;;
66118;SDS011;52912;48.564;9.302;2022-10-16T03:17:42;6.25;;;1.60;;
66118;SDS011;52912;48.564;9.302;2022-10-16T03:20:08;6.18;;;1.52;;
66118;SDS011;52912;48.564;9.302;2022-10-16T03:22:34;4.93;;;1.50;;
66118;SDS011;52912;48.564;9.302;2022-10-16T03:24:59;2.22;;;1.60;;
66118;SDS011;52912;48.564;9.302;2022-10-16T03:27:26;3.92;;;1.80;;
66118;SDS011;52912;48.564;9.302;2022-10-16T03:29:51;7.03;;;1.60;;
66118;SDS011;52912;48.564;9.302;2022-10-16T03:32:17;4.22;;;1.70;;
66118;SDS011;52912;48.564;9.302;2022-10-16T03:34:42;2.95;;;1.50;;
66118;SDS011;52912;48.564;9.302;2022-10-16T03:37:08;6.88;;;1.77;;
66118;SDS011;52912;48.564;9.302;2022-10-16T03:39:33;3.30;;;1.70;;
66118;SDS011;52912;48.564;9.302;2022-10-16T03:41:59;1.92;;;1.63;;
66118;SDS011;52912;48.564;9.302;2022-10-16T03:44:25;5.82;;;1.83;;
66118;SDS011;52912;48.564;9.302;2022-10-16T03:46:51;9.90;;;3.05;;
66118;SDS011;52912;48.564;9.302;2022-10-16T03:49:16;6.03;;;2.47;;
66118;SDS011;52912;48.564;9.302;2022-10-16T03:51:42;6.38;;;2.33;;
66118;SDS011;52912;48.564;9.302;2022-10-16T03:54:07;5.20;;;2.17;;
66118;SDS011;52912;48.564;9.302;2022-10-16T03:56:33;5.63;;;1.98;;
66118;SDS011;52912;48.564;9.302;2022-10-16T03:58:58;3.58;;;2.13;;
66118;SDS011;52912;48.564;9.302;2022-10-16T04:01:25;3.40;;;2.20;;
66118;SDS011;52912;48.564;9.302;2022-10-16T04:03:50;5.13;;;2.28;;
66118;SDS011;52912;48.564;9.302;2022-10-16T04:06:16;7.07;;;2.17;;
66118;SDS011;52912;48.564;9.302;2022-10-16T04:08:42;5.88;;;2.30;;
66118;SDS011;52912;48.564;9.302;2022-10-16T04:11:08;3.00;;;1.83;;
66118;SDS011;52912;48.564;9.302;2022-10-16T04:13:33;5.88;;;2.20;;
66118;SDS011;52912;48.564;9.302;2022-10-16T04:15:59;2.60;;;2.00;;
66118;SDS011;52912;48.564;9.302;2022-10-16T04:18:25;8.30;;;2.30;;
66118;SDS011;52912;48.564;9.302;2022-10-16T04:20:51;3.90;;;2.13;;
66118;SDS011;52912;48.564;9.302;2022-10-16T04:23:16;3.15;;;1.85;;
66118;SDS011;52912;48.564;9.302;2022-10-16T04:25:42;3.72;;;1.88;;
66118;SDS011;52912;48.564;9.302;2022-10-16T04:28:07;4.60;;;1.73;;
66118;SDS011;52912;48.564;9.302;2022-10-16T04:30:33;8.27;;;2.00;;
66118;SDS011;52912;48.564;9.302;2022-10-16T04:32:58;3.92;;;1.88;;
66118;SDS011;52912;48.564;9.302;2022-10-16T04:35:25;4.22;;;1.67;;
66118;SDS011;52912;48.564;9.302;2022-10-16T04:37:51;4.00;;;1.70;;
66118;SDS011;52912;48.564;9.302;2022-10-16T04:40:16;5.05;;;1.95;;
66118;SDS011;52912;48.564;9.302;2022-10-16T04:42:42;2.95;;;1.63;;
66118;SDS011;52912;48.564;9.302;2022-10-16T04:45:07;5.40;;;1.55;;
66118;SDS011;52912;48.564;9.302;2022-10-16T04:47:33;3.50;;;1.70;;
66118;SDS011;52912;48.564;9.302;2022-10-16T04:49:59;6.00;;;1.80;;
66118;SDS011;52912;48.564;9.302;2022-10-16T04:52:26;2.75;;;1.80;;
66118;SDS011;52912;48.564;9.302;2022-10-16T04:54:51;2.97;;;1.80;;
66118;SDS011;52912;48.564;9.302;2022-10-16T04:57:17;5.03;;;2.10;;
66118;SDS011;52912;48.564;9.302;2022-10-16T04:59:42;10.15;;;2.00;;
66118;SDS011;52912;48.564;9.302;2022-10-16T05:02:08;7.20;;;1.90;;
66118;SDS011;52912;48.564;9.302;2022-10-16T05:04:33;3.40;;;1.90;;
66118;SDS011;52912;48.564;9.302;2022-10-16T05:06:59;7.72;;;4.32;;
66118;SDS011;52912;48.564;9.302;2022-10-16T05:09:25;5.53;;;3.00;;
66118;SDS011;52912;48.564;9.302;2022-10-16T05:11:51;6.65;;;2.92;;
66118;SDS011;52912;48.564;9.302;2022-10-16T05:14:16;4.57;;;2.70;;
66118;SDS011;52912;48.564;9.302;2022-10-16T05:16:42;6.32;;;3.05;;
66118;SDS011;52912;48.564;9.302;2022-10-16T05:19:07;11.10;;;3.00;;
66118;SDS011;52912;48.564;9.302;2022-10-16T05:21:33;5.57;;;2.80;;
66118;SDS011;52912;48.564;9.302;2022-10-16T05:23:58;4.43;;;2.50;;
66118;SDS011;52912;48.564;9.302;2022-10-16T05:26:25;5.93;;;2.50;;
66118;SDS011;52912;48.564;9.302;2022-10-16T05:28:50;4.97;;;1.90;;
66118;SDS011;52912;48.564;9.302;2022-10-16T05:31:16;4.88;;;2.17;;
66118;SDS011;52912;48.564;9.302;2022-10-16T05:33:41;3.95;;;2.25;;
66118;SDS011;52912;48.564;9.302;2022-10-16T05:36:08;10.77;;;2.80;;
66118;SDS011;52912;48.564;9.302;2022-10-16T05:38:34;10.27;;;2.63;;
66118;SDS011;52912;48.564;9.302;2022-10-16T05:40:59;6.00;;;1.98;;
66118;SDS011;52912;48.564;9.302;2022-10-16T05:43:26;2.90;;;2.08;;
66118;SDS011;52912;48.564;9.302;2022-10-16T05:45:55;2.63;;;1.92;;
66118;SDS011;52912;48.564;9.302;2022-10-16T05:48:21;6.00;;;2.00;;
66118;SDS011;52912;48.564;9.302;2022-10-16T05:50:47;5.80;;;2.00;;
66118;SDS011;52912;48.564;9.302;2022-10-16T05:53:12;8.32;;;2.40;;
66118;SDS011;52912;48.564;9.302;2022-10-16T05:55:37;11.65;;;2.30;;
66118;SDS011;52912;48.564;9.302;2022-10-16T05:58:03;5.65;;;2.63;;
66118;SDS011;52912;48.564;9.302;2022-10-16T06:00:30;7.28;;;2.10;;
66118;SDS011;52912;48.564;9.302;2022-10-16T06:02:55;6.85;;;2.45;;
66118;SDS011;52912;48.564;9.302;2022-10-16T06:05:20;4.78;;;2.00;;
66118;SDS011;52912;48.564;9.302;2022-10-16T06:07:46;5.78;;;2.13;;
66118;SDS011;52912;48.564;9.302;2022-10-16T06:10:11;5.95;;;1.98;;
66118;SDS011;52912;48.564;9.302;2022-10-16T06:12:37;6.43;;;1.95;;
66118;SDS011;52912;48.564;9.302;2022-10-16T06:15:03;5.50;;;2.17;;
66118;SDS011;52912;48.564;9.302;2022-10-16T06:17:30;5.28;;;2.20;;
66118;SDS011;52912;48.564;9.302;2022-10-16T06:19:55;7.40;;;2.42;;
66118;SDS011;52912;48.564;9.302;2022-10-16T06:22:21;2.72;;;2.08;;
66118;SDS011;52912;48.564;9.302;2022-10-16T06:24:46;4.43;;;2.20;;
66118;SDS011;52912;48.564;9.302;2022-10-16T06:27:12;3.42;;;2.10;;
66118;SDS011;52912;48.564;9.302;2022-10-16T06:29:37;4.40;;;1.80;;
66118;SDS011;52912;48.564;9.302;2022-10-16T06:32:03;5.20;;;2.00;;
66118;SDS011;52912;48.564;9.302;2022-10-16T06:34:30;6.78;;;2.03;;
66118;SDS011;52912;48.564;9.302;2022-10-16T06:36:55;4.47;;;1.90;;
66118;SDS011;52912;48.564;9.302;2022-10-16T06:39:20;5.78;;;2.00;;
66118;SDS011;52912;48.564;9.302;2022-10-16T06:41:46;8.50;;;2.03;;
66118;SDS011;52912;48.564;9.302;2022-10-16T06:44:11;2.75;;;1.90;;
66118;SDS011;52912;48.564;9.302;2022-10-16T06:46:37;3.08;;;2.00;;
66118;SDS011;52912;48.564;9.302;2022-10-16T06:49:02;3.92;;;2.17;;
66118;SDS011;52912;48.564;9.302;2022-10-16T06:51:29;5.38;;;2.00;;
66118;SDS011;52912;48.564;9.302;2022-10-16T06:53:55;6.82;;;2.08;;
66118;SDS011;52912;48.564;9.302;2022-10-16T06:56:21;3.65;;;2.00;;
66118;SDS011;52912;48.564;9.302;2022-10-16T06:58:47;5.43;;;2.50;;
66118;SDS011;52912;48.564;9.302;2022-10-16T07:01:14;4.18;;;1.90;;
66118;SDS011;52912;48.564;9.302;2022-10-16T07:03:41;3.88;;;2.28;;
66118;SDS011;52912;48.564;9.302;2022-10-16T07:06:08;5.68;;;2.20;;
66118;SDS011;52912;48.564;9.302;2022-10-16T07:08:37;5.18;;;2.50;;
66118;SDS011;52912;48.564;9.302;2022-10-16T07:11:05;4.38;;;2.35;;
66118;SDS011;52912;48.564;9.302;2022-10-16T07:13:32;6.25;;;2.33;;
66118;SDS011;52912;48.564;9.302;2022-10-16T07:15:58;4.80;;;2.20;;
66118;SDS011;52912;48.564;9.302;2022-10-16T07:18:29;5.43;;;1.88;;
66118;SDS011;52912;48.564;9.302;2022-10-16T07:21:02;4.65;;;2.17;;
66118;SDS011;52912;48.564;9.302;2022-10-16T07:23:28;3.10;;;2.10;;
66118;SDS011;52912;48.564;9.302;2022-10-16T07:25:55;5.30;;;2.40;;
66118;SDS011;52912;48.564;9.302;2022-10-16T07:28:21;4.68;;;2.22;;
66118;SDS011;52912;48.564;9.302;2022-10-16T07:30:46;6.60;;;2.40;;
66118;SDS011;52912;48.564;9.302;2022-10-16T07:33:12;3.97;;;1.77;;
66118;SDS011;52912;48.564;9.302;2022-10-16T07:35:37;3.10;;;2.10;;
66118;SDS011;52912;48.564;9.302;2022-10-16T07:38:03;6.95;;;1.90;;
66118;SDS011;52912;48.564;9.302;2022-10-16T07:40:28;5.18;;;2.05;;
66118;SDS011;52912;48.564;9.302;2022-10-16T07:42:55;7.35;;;2.10;;
66118;SDS011;52912;48.564;9.302;2022-10-16T07:45:20;5.32;;;1.80;;
66118;SDS011;52912;48.564;9.302;2022-10-16T07:47:46;4.32;;;1.90;;
66118;SDS011;52912;48.564;9.302;2022-10-16T07:50:11;5.55;;;2.05;;
66118;SDS011;52912;48.564;9.302;2022-10-16T07:52:37;5.78;;;1.80;;
66118;SDS011;52912;48.564;9.302;2022-10-16T07:55:02;5.75;;;2.10;;
66118;SDS011;52912;48.564;9.302;2022-10-16T07:57:28;7.85;;;2.15;;
66118;SDS011;52912;48.564;9.302;2022-10-16T07:59:55;3.38;;;1.90;;
66118;SDS011;52912;48.564;9.302;2022-10-16T08:02:20;3.10;;;1.88;;
66118;SDS011;52912;48.564;9.302;2022-10-16T08:04:46;6.25;;;1.90;;
66118;SDS011;52912;48.564;9.302;2022-10-16T08:07:11;2.45;;;1.60;;
66118;SDS011;52912;48.564;9.302;2022-10-16T08:09:37;4.85;;;1.70;;
66118;SDS011;52912;48.564;9.302;2022-10-16T08:12:02;4.53;;;1.77;;
66118;SDS011;52912;48.564;9.302;2022-10-16T08:14:28;4.75;;;1.80;;
66118;SDS011;52912;48.564;9.302;2022-10-16T08:16:55;3.80;;;1.83;;
66118;SDS011;52912;48.564;9.302;2022-10-16T08:19:20;4.53;;;1.80;;
66118;SDS011;52912;48.564;9.302;2022-10-16T08:21:46;4.93;;;2.00;;
66118;SDS011;52912;48.564;9.302;2022-10-16T08:24:12;6.68;;;3.75;;
66118;SDS011;52912;48.564;9.302;2022-10-16T08:26:37;13.02;;;2.00;;
66118;SDS011;52912;48.564;9.302;2022-10-16T08:29:03;3.25;;;1.80;;
66118;SDS011;52912;48.564;9.302;2022-10-16T08:31:28;5.88;;;2.20;;
66118;SDS011;52912;48.564;9.302;2022-10-16T08:33:55;4.57;;;2.00;;
66118;SDS011;52912;48.564;9.302;2022-10-16T08:36:20;5.05;;;1.70;;
66118;SDS011;52912;48.564;9.302;2022-10-16T08:38:47;2.65;;;1.90;;
66118;SDS011;52912;48.564;9.302;2022-10-16T08:41:17;4.40;;;2.33;;
66118;SDS011;52912;48.564;9.302;2022-10-16T08:44:03;8.98;;;3.45;;
66118;SDS011;52912;48.564;9.302;2022-10-16T08:46:44;5.47;;;2.10;;
66118;SDS011;52912;48.564;9.302;2022-10-16T08:49:16;5.97;;;2.10;;
66118;SDS011;52912;48.564;9.302;2022-10-16T08:51:42;11.07;;;1.92;;
66118;SDS011;52912;48.564;9.302;2022-10-16T08:54:12;5.47;;;2.10;;
66118;SDS011;52912;48.564;9.302;2022-10-16T08:56:46;9.57;;;2.17;;
66118;SDS011;52912;48.564;9.302;2022-10-16T08:59:12;2.65;;;1.90;;
66118;SDS011;52912;48.564;9.302;2022-10-16T09:01:40;6.10;;;2.45;;
66118;SDS011;52912;48.564;9.302;2022-10-16T09:04:19;4.25;;;2.20;;
66118;SDS011;52912;48.564;9.302;2022-10-16T09:07:06;4.53;;;2.00;;
66118;SDS011;52912;48.564;9.302;2022-10-16T09:09:43;7.03;;;2.90;;
66118;SDS011;52912;48.564;9.302;2022-10-16T09:12:21;4.57;;;2.80;;
66118;SDS011;52912;48.564;9.302;2022-10-16T09:14:52;6.10;;;2.33;;
66118;SDS011;52912;48.564;9.302;2022-10-16T09:17:27;5.72;;;1.92;;
66118;SDS011;52912;48.564;9.302;2022-10-16T09:20:08;9.65;;;2.40;;
66118;SDS011;52912;48.564;9.302;2022-10-16T09:22:40;4.80;;;2.78;;
66118;SDS011;52912;48.564;9.302;2022-10-16T09:25:10;6.43;;;3.00;;
66118;SDS011;52912;48.564;9.302;2022-10-16T09:27:36;6.57;;;2.72;;
66118;SDS011;52912;48.564;9.302;2022-10-16T09:30:06;10.95;;;2.40;;
66118;SDS011;52912;48.564;9.302;2022-10-16T09:32:37;5.00;;;2.13;;
66118;SDS011;52912;48.564;9.302;2022-10-16T09:35:09;9.73;;;4.30;;
66118;SDS011;52912;48.564;9.302;2022-10-16T09:37:38;7.60;;;2.92;;
66118;SDS011;52912;48.564;9.302;2022-10-16T09:40:05;9.13;;;3.83;;
66118;SDS011;52912;48.564;9.302;2022-10-16T09:42:31;3.17;;;2.00;;
66118;SDS011;52912;48.564;9.302;2022-10-16T09:45:00;5.68;;;3.15;;
66118;SDS011;52912;48.564;9.302;2022-10-16T09:47:26;6.00;;;2.20;;
66118;SDS011;52912;48.564;9.302;2022-10-16T09:49:54;11.05;;;4.78;;
66118;SDS011;52912;48.564;9.302;2022-10-16T09:52:22;10.93;;;5.70;;
66118;SDS011;52912;48.564;9.302;2022-10-16T09:54:48;10.07;;;4.80;;
66118;SDS011;52912;48.564;9.302;2022-10-16T09:57:15;7.75;;;2.67;;
66118;SDS011;52912;48.564;9.302;2022-10-16T09:59:45;8.57;;;1.95;;
66118;SDS011;52912;48.564;9.302;2022-10-16T10:02:11;9.60;;;2.17;;
66118;SDS011;52912;48.564;9.302;2022-10-16T10:04:40;3.97;;;1.90;;
66118;SDS011;52912;48.564;9.302;2022-10-16T10:07:16;2.50;;;1.80;;
66118;SDS011;52912;48.564;9.302;2022-10-16T10:09:44;4.63;;;1.90;;
66118;SDS011;52912;48.564;9.302;2022-10-16T10:12:16;4.93;;;1.88;;
66118;SDS011;52912;48.564;9.302;2022-10-16T10:14:44;7.43;;;2.30;;
66118;SDS011;52912;48.564;9.302;2022-10-16T10:17:13;5.18;;;2.17;;
66118;SDS011;52912;48.564;9.302;2022-10-16T10:19:41;1.60;;;1.50;;
66118;SDS011;52912;48.564;9.302;2022-10-16T10:22:15;2.72;;;1.70;;
66118;SDS011;52912;48.564;9.302;2022-10-16T10:24:56;7.82;;;1.80;;
66118;SDS011;52912;48.564;9.302;2022-10-16T10:27:26;6.00;;;3.03;;
66118;SDS011;52912;48.564;9.302;2022-10-16T10:30:01;5.20;;;3.10;;
66118;SDS011;52912;48.564;9.302;2022-10-16T10:32:31;2.78;;;1.67;;
66118;SDS011;52912;48.564;9.302;2022-10-16T10:35:07;5.15;;;1.55;;
66118;SDS011;52912;48.564;9.302;2022-10-16T10:37:45;3.10;;;1.77;;
66118;SDS011;52912;48.564;9.302;2022-10-16T10:40:29;3.35;;;1.70;;
66118;SDS011;52912;48.564;9.302;2022-10-16T10:43:04;8.63;;;1.70;;
66118;SDS011;52912;48.564;9.302;2022-10-16T10:45:41;6.63;;;1.77;;
66118;SDS011;52912;48.564;9.302;2022-10-16T10:48:17;4.63;;;1.83;;
66118;SDS011;52912;48.564;9.302;2022-10-16T10:50:53;2.70;;;1.50;;
66118;SDS011;52912;48.564;9.302;2022-10-16T10:53:25;2.13;;;1.40;;
66118;SDS011;52912;48.564;9.302;2022-10-16T10:56:05;4.13;;;1.40;;
66118;SDS011;52912;48.564;9.302;2022-10-16T10:58:42;9.37;;;1.97;;
66118;SDS011;52912;48.564;9.302;2022-10-16T11:01:34;3.08;;;1.60;;
66118;SDS011;52912;48.564;9.302;2022-10-16T11:04:15;1.90;;;1.45;;
66118;SDS011;52912;48.564;9.302;2022-10-16T11:09:23;4.47;;;1.73;;
66118;SDS011;52912;48.564;9.302;2022-10-16T11:11:54;3.40;;;1.38;;
66118;SDS011;52912;48.564;9.302;2022-10-16T11:14:25;2.65;;;1.40;;
66118;SDS011;52912;48.564;9.302;2022-10-16T11:16:55;2.55;;;1.55;;
66118;SDS011;52912;48.564;9.302;2022-10-16T11:19:26;1.77;;;1.25;;
66118;SDS011;52912;48.564;9.302;2022-10-16T11:22:01;3.40;;;1.27;;
66118;SDS011;52912;48.564;9.302;2022-10-16T11:24:35;3.60;;;1.50;;
66118;SDS011;52912;48.564;9.302;2022-10-16T11:27:10;4.47;;;1.60;;
66118;SDS011;52912;48.564;9.302;2022-10-16T11:29:42;2.38;;;1.33;;
66118;SDS011;52912;48.564;9.302;2022-10-16T11:32:17;1.83;;;1.23;;
66118;SDS011;52912;48.564;9.302;2022-10-16T11:34:47;2.25;;;1.25;;
66118;SDS011;52912;48.564;9.302;2022-10-16T11:37:17;2.15;;;1.30;;
66118;SDS011;52912;48.564;9.302;2022-10-16T11:39:45;2.45;;;1.25;;
66118;SDS011;52912;48.564;9.302;2022-10-16T11:42:13;3.25;;;1.40;;
66118;SDS011;52912;48.564;9.302;2022-10-16T11:44:45;1.60;;;1.20;;
66118;SDS011;52912;48.564;9.302;2022-10-16T11:47:22;1.98;;;1.20;;
66118;SDS011;52912;48.564;9.302;2022-10-16T11:49:53;4.32;;;1.60;;
66118;SDS011;52912;48.564;9.302;2022-10-16T11:52:24;3.20;;;1.55;;
66118;SDS011;52912;48.564;9.302;2022-10-16T11:54:54;2.45;;;1.30;;
66118;SDS011;52912;48.564;9.302;2022-10-16T11:57:24;3.25;;;1.20;;
66118;SDS011;52912;48.564;9.302;2022-10-16T11:59:54;3.75;;;1.27;;
66118;SDS011;52912;48.564;9.302;2022-10-16T12:02:29;1.77;;;1.38;;
66118;SDS011;52912;48.564;9.302;2022-10-16T12:05:19;3.17;;;1.30;;
66118;SDS011;52912;48.564;9.302;2022-10-16T12:07:51;2.75;;;1.33;;
66118;SDS011;52912;48.564;9.302;2022-10-16T12:10:26;3.38;;;1.35;;
66118;SDS011;52912;48.564;9.302;2022-10-16T12:12:55;2.20;;;1.33;;
66118;SDS011;52912;48.564;9.302;2022-10-16T12:15:22;1.52;;;1.25;;
66118;SDS011;52912;48.564;9.302;2022-10-16T12:17:50;2.15;;;1.40;;
66118;SDS011;52912;48.564;9.302;2022-10-16T12:20:20;2.53;;;1.50;;
66118;SDS011;52912;48.564;9.302;2022-10-16T12:22:52;1.42;;;1.30;;
66118;SDS011;52912;48.564;9.302;2022-10-16T12:25:23;6.13;;;1.60;;
66118;SDS011;52912;48.564;9.302;2022-10-16T12:27:56;6.00;;;1.40;;
66118;SDS011;52912;48.564;9.302;2022-10-16T12:30:23;5.28;;;1.50;;
66118;SDS011;52912;48.564;9.302;2022-10-16T12:32:54;1.95;;;1.30;;
66118;SDS011;52912;48.564;9.302;2022-10-16T12:35:21;3.08;;;1.40;;
66118;SDS011;52912;48.564;9.302;2022-10-16T12:37:49;2.47;;;1.30;;
66118;SDS011;52912;48.564;9.302;2022-10-16T12:40:16;1.65;;;1.10;;
66118;SDS011;52912;48.564;9.302;2022-10-16T12:42:50;1.30;;;1.20;;
66118;SDS011;52912;48.564;9.302;2022-10-16T12:45:25;2.38;;;1.30;;
66118;SDS011;52912;48.564;9.302;2022-10-16T12:47:53;2.63;;;1.40;;
66118;SDS011;52912;48.564;9.302;2022-10-16T12:50:27;3.00;;;1.30;;
66118;SDS011;52912;48.564;9.302;2022-10-16T12:52:55;3.83;;;1.60;;
66118;SDS011;52912;48.564;9.302;2022-10-16T12:55:21;9.93;;;1.50;;
66118;SDS011;52912;48.564;9.302;2022-10-16T12:57:52;1.98;;;1.40;;
66118;SDS011;52912;48.564;9.302;2022-10-16T13:00:34;8.77;;;1.70;;
66118;SDS011;52912;48.564;9.302;2022-10-16T13:03:28;1.75;;;1.40;;
66118;SDS011;52912;48.564;9.302;2022-10-16T13:06:11;4.55;;;1.63;;
66118;SDS011;52912;48.564;9.302;2022-10-16T13:11:18;6.20;;;1.67;;
66118;SDS011;52912;48.564;9.302;2022-10-16T13:13:53;4.07;;;1.65;;
66118;SDS011;52912;48.564;9.302;2022-10-16T13:16:33;3.92;;;1.20;;
66118;SDS011;52912;48.564;9.302;2022-10-16T13:19:10;4.13;;;1.60;;
66118;SDS011;52912;48.564;9.302;2022-10-16T13:21:45;3.47;;;1.30;;
66118;SDS011;52912;48.564;9.302;2022-10-16T13:24:17;2.03;;;1.42;;
66118;SDS011;52912;48.564;9.302;2022-10-16T13:26:52;7.05;;;1.60;;
66118;SDS011;52912;48.564;9.302;2022-10-16T13:29:22;2.88;;;1.20;;
66118;SDS011;52912;48.564;9.302;2022-10-16T13:31:50;8.65;;;1.48;;
66118;SDS011;52912;48.564;9.302;2022-10-16T13:34:15;1.40;;;1.30;;
66118;SDS011;52912;48.564;9.302;2022-10-16T13:36:44;3.17;;;1.40;;
66118;SDS011;52912;48.564;9.302;2022-10-16T13:39:11;3.95;;;1.83;;
66118;SDS011;52912;48.564;9.302;2022-10-16T13:41:38;3.47;;;1.80;;
66118;SDS011;52912;48.564;9.302;2022-10-16T13:44:04;2.13;;;1.45;;
66118;SDS011;52912;48.564;9.302;2022-10-16T13:46:33;6.82;;;1.80;;
66118;SDS011;52912;48.564;9.302;2022-10-16T13:49:02;1.58;;;1.38;;
66118;SDS011;52912;48.564;9.302;2022-10-16T13:51:30;1.55;;;1.20;;
66118;SDS011;52912;48.564;9.302;2022-10-16T13:53:57;2.30;;;1.40;;
66118;SDS011;52912;48.564;9.302;2022-10-16T13:56:24;2.58;;;1.60;;
66118;SDS011;52912;48.564;9.302;2022-10-16T13:58:59;4.72;;;1.70;;
66118;SDS011;52912;48.564;9.302;2022-10-16T14:01:26;2.45;;;1.50;;
66118;SDS011;52912;48.564;9.302;2022-10-16T14:03:59;7.70;;;1.52;;
66118;SDS011;52912;48.564;9.302;2022-10-16T14:06:28;2.40;;;1.40;;
66118;SDS011;52912;48.564;9.302;2022-10-16T14:08:56;4.80;;;1.40;;
66118;SDS011;52912;48.564;9.302;2022-10-16T14:11:25;4.25;;;1.48;;
66118;SDS011;52912;48.564;9.302;2022-10-16T14:13:51;5.95;;;1.50;;
66118;SDS011;52912;48.564;9.302;2022-10-16T14:16:18;3.67;;;1.50;;
66118;SDS011;52912;48.564;9.302;2022-10-16T14:18:45;4.88;;;1.50;;
66118;SDS011;52912;48.564;9.302;2022-10-16T14:21:17;4.18;;;1.30;;
66118;SDS011;52912;48.564;9.302;2022-10-16T14:23:43;6.65;;;1.48;;
66118;SDS011;52912;48.564;9.302;2022-10-16T14:26:12;2.50;;;1.45;;
66118;SDS011;52912;48.564;9.302;2022-10-16T14:28:39;3.13;;;1.58;;
66118;SDS011;52912;48.564;9.302;2022-10-16T14:31:19;3.80;;;1.80;;
66118;SDS011;52912;48.564;9.302;2022-10-16T14:33:51;8.80;;;1.98;;
66118;SDS011;52912;48.564;9.302;2022-10-16T14:36:18;3.95;;;1.80;;
66118;SDS011;52912;48.564;9.302;2022-10-16T14:38:48;3.75;;;1.75;;
66118;SDS011;52912;48.564;9.302;2022-10-16T14:41:15;2.70;;;1.63;;
66118;SDS011;52912;48.564;9.302;2022-10-16T14:43:49;12.90;;;1.92;;
66118;SDS011;52912;48.564;9.302;2022-10-16T14:46:16;4.47;;;1.83;;
66118;SDS011;52912;48.564;9.302;2022-10-16T14:48:44;6.33;;;2.27;;
66118;SDS011;52912;48.564;9.302;2022-10-16T14:51:12;6.07;;;2.10;;
66118;SDS011;52912;48.564;9.302;2022-10-16T14:53:40;9.65;;;2.35;;
66118;SDS011;52912;48.564;9.302;2022-10-16T14:56:06;4.90;;;1.60;;
66118;SDS011;52912;48.564;9.302;2022-10-16T14:58:32;7.55;;;1.80;;
66118;SDS011;52912;48.564;9.302;2022-10-16T15:00:57;2.72;;;1.35;;
66118;SDS011;52912;48.564;9.302;2022-10-16T15:03:23;4.55;;;1.77;;
66118;SDS011;52912;48.564;9.302;2022-10-16T15:05:48;10.60;;;2.17;;